sensor_id;sensor_type;location;lat;lon;timestamp;temperature;humidity
68609;SHT31;55581;46.718;7.690;2023-11-18T00:01:14;4.78;91.72
68609;SHT31;55581;46.718;7.690;2023-11-18T00:03:44;4.60;91.69
68609;SHT31;55581;46.718;7.690;2023-11-18T00:06:10;4.52;92.22
68609;SHT31;55581;46.718;7.690;2023-11-18T00:08:35;4.46;92.58
68609;SHT31;55581;46.718;7.690;2023-11-18T00:11:01;4.52;92.50
68609;SHT31;55581;46.718;7.690;2023-11-18T00:13:26;4.47;91.19
68609;SHT31;55581;46.718;7.690;2023-11-18T00:15:55;4.39;91.40
68609;SHT31;55581;46.718;7.690;2023-11-18T00:18:21;4.33;91.60
68609;SHT31;55581;46.718;7.690;2023-11-18T00:20:46;4.32;92.06
68609;SHT31;55581;46.718;7.690;2023-11-18T00:23:11;4.23;91.81
68609;SHT31;55581;46.718;7.690;2023-11-18T00:25:38;4.22;92.01
68609;SHT31;55581;46.718;7.690;2023-11-18T00:28:05;4.19;91.91
68609;SHT31;55581;46.718;7.690;2023-11-18T00:30:33;4.12;92.02
68609;SHT31;55581;46.718;7.690;2023-11-18T00:32:58;4.13;91.90
68609;SHT31;55581;46.718;7.690;2023-11-18T00:35:23;4.03;92.47
68609;SHT31;55581;46.718;7.690;2023-11-18T00:37:49;3.97;92.35
68609;SHT31;55581;46.718;7.690;2023-11-18T00:40:15;3.89;93.20
68609;SHT31;55581;46.718;7.690;2023-11-18T00:42:43;3.84;93.33
68609;SHT31;55581;46.718;7.690;2023-11-18T00:45:11;3.82;93.19
68609;SHT31;55581;46.718;7.690;2023-11-18T00:47:38;3.77;93.21
68609;SHT31;55581;46.718;7.690;2023-11-18T00:50:04;3.71;93.50
68609;SHT31;55581;46.718;7.690;2023-11-18T00:52:36;3.71;93.80
68609;SHT31;55581;46.718;7.690;2023-11-18T00:55:07;3.73;93.91
68609;SHT31;55581;46.718;7.690;2023-11-18T00:57:33;3.70;94.06
68609;SHT31;55581;46.718;7.690;2023-11-18T00:59:58;3.68;94.50
68609;SHT31;55581;46.718;7.690;2023-11-18T01:02:24;3.73;94.42
68609;SHT31;55581;46.718;7.690;2023-11-18T01:04:49;3.68;93.97
68609;SHT31;55581;46.718;7.690;2023-11-18T01:07:15;3.70;93.51
68609;SHT31;55581;46.718;7.690;2023-11-18T01:09:41;3.70;92.53
68609;SHT31;55581;46.718;7.690;2023-11-18T01:12:07;3.71;93.10
68609;SHT31;55581;46.718;7.690;2023-11-18T01:14:38;3.68;93.01
68609;SHT31;55581;46.718;7.690;2023-11-18T01:17:08;3.74;92.89
68609;SHT31;55581;46.718;7.690;2023-11-18T01:19:34;3.67;92.57
68609;SHT31;55581;46.718;7.690;2023-11-18T01:22:00;3.66;92.86
68609;SHT31;55581;46.718;7.690;2023-11-18T01:24:26;3.61;92.87
68609;SHT31;55581;46.718;7.690;2023-11-18T01:26:53;3.63;92.32
68609;SHT31;55581;46.718;7.690;2023-11-18T01:29:21;3.66;92.16
68609;SHT31;55581;46.718;7.690;2023-11-18T01:31:47;3.63;92.71
68609;SHT31;55581;46.718;7.690;2023-11-18T01:34:13;3.59;92.99
68609;SHT31;55581;46.718;7.690;2023-11-18T01:36:40;3.59;92.56
68609;SHT31;55581;46.718;7.690;2023-11-18T01:39:09;3.53;92.61
68609;SHT31;55581;46.718;7.690;2023-11-18T01:41:34;3.51;93.05
68609;SHT31;55581;46.718;7.690;2023-11-18T01:44:00;3.50;92.76
68609;SHT31;55581;46.718;7.690;2023-11-18T01:46:26;3.51;92.63
68609;SHT31;55581;46.718;7.690;2023-11-18T01:48:55;3.44;92.87
68609;SHT31;55581;46.718;7.690;2023-11-18T01:51:21;3.46;92.91
68609;SHT31;55581;46.718;7.690;2023-11-18T01:53:49;3.42;93.13
68609;SHT31;55581;46.718;7.690;2023-11-18T01:56:15;3.43;92.29
68609;SHT31;55581;46.718;7.690;2023-11-18T01:58:41;3.42;92.37
68609;SHT31;55581;46.718;7.690;2023-11-18T02:01:09;3.43;92.65
68609;SHT31;55581;46.718;7.690;2023-11-18T02:03:35;3.46;92.11
68609;SHT31;55581;46.718;7.690;2023-11-18T02:06:02;3.50;92.15
68609;SHT31;55581;46.718;7.690;2023-11-18T02:08:32;3.43;92.65
68609;SHT31;55581;46.718;7.690;2023-11-18T02:11:09;3.47;91.94
68609;SHT31;55581;46.718;7.690;2023-11-18T02:13:39;3.46;91.78
68609;SHT31;55581;46.718;7.690;2023-11-18T02:16:09;3.42;91.98
68609;SHT31;55581;46.718;7.690;2023-11-18T02:18:40;3.30;92.01
68609;SHT31;55581;46.718;7.690;2023-11-18T02:21:07;3.32;92.06
68609;SHT31;55581;46.718;7.690;2023-11-18T02:23:35;3.24;92.25
68609;SHT31;55581;46.718;7.690;2023-11-18T02:26:02;3.23;92.63
68609;SHT31;55581;46.718;7.690;2023-11-18T02:28:28;3.23;92.84
68609;SHT31;55581;46.718;7.690;2023-11-18T02:30:58;3.22;92.90
68609;SHT31;55581;46.718;7.690;2023-11-18T02:33:48;3.27;92.44
68609;SHT31;55581;46.718;7.690;2023-11-18T02:36:29;3.22;92.74
68609;SHT31;55581;46.718;7.690;2023-11-18T02:39:15;3.20;92.72
68609;SHT31;55581;46.718;7.690;2023-11-18T02:41:48;3.19;93.06
68609;SHT31;55581;46.718;7.690;2023-11-18T02:44:17;3.18;92.82
68609;SHT31;55581;46.718;7.690;2023-11-18T02:46:43;3.13;93.00
68609;SHT31;55581;46.718;7.690;2023-11-18T02:49:09;3.16;92.92
68609;SHT31;55581;46.718;7.690;2023-11-18T02:51:35;3.15;93.26
68609;SHT31;55581;46.718;7.690;2023-11-18T02:54:05;3.22;93.63
68609;SHT31;55581;46.718;7.690;2023-11-18T02:56:39;3.15;92.99
68609;SHT31;55581;46.718;7.690;2023-11-18T02:59:04;3.18;92.93
68609;SHT31;55581;46.718;7.690;2023-11-18T03:01:33;3.23;92.65
68609;SHT31;55581;46.718;7.690;2023-11-18T03:04:01;3.20;92.90
68609;SHT31;55581;46.718;7.690;2023-11-18T03:06:27;3.13;92.83
68609;SHT31;55581;46.718;7.690;2023-11-18T03:08:53;3.12;93.14
68609;SHT31;55581;46.718;7.690;2023-11-18T03:11:19;3.15;93.21
68609;SHT31;55581;46.718;7.690;2023-11-18T03:13:45;3.09;92.99
68609;SHT31;55581;46.718;7.690;2023-11-18T03:16:16;3.09;93.09
68609;SHT31;55581;46.718;7.690;2023-11-18T03:18:43;3.08;92.64
68609;SHT31;55581;46.718;7.690;2023-11-18T03:21:13;3.05;92.59
68609;SHT31;55581;46.718;7.690;2023-11-18T03:23:39;3.08;93.21
68609;SHT31;55581;46.718;7.690;2023-11-18T03:26:09;3.06;92.99
68609;SHT31;55581;46.718;7.690;2023-11-18T03:28:35;3.09;93.28
68609;SHT31;55581;46.718;7.690;2023-11-18T03:31:03;3.15;93.26
68609;SHT31;55581;46.718;7.690;2023-11-18T03:33:29;3.19;92.78
68609;SHT31;55581;46.718;7.690;2023-11-18T03:35:57;3.23;92.46
68609;SHT31;55581;46.718;7.690;2023-11-18T03:38:22;3.29;93.24
68609;SHT31;55581;46.718;7.690;2023-11-18T03:40:49;3.29;92.75
68609;SHT31;55581;46.718;7.690;2023-11-18T03:43:14;3.44;92.94
68609;SHT31;55581;46.718;7.690;2023-11-18T03:45:43;3.50;92.70
68609;SHT31;55581;46.718;7.690;2023-11-18T03:48:09;3.50;92.60
68609;SHT31;55581;46.718;7.690;2023-11-18T03:50:34;3.46;93.16
68609;SHT31;55581;46.718;7.690;2023-11-18T03:53:00;3.46;93.08
68609;SHT31;55581;46.718;7.690;2023-11-18T03:55:29;3.44;93.70
68609;SHT31;55581;46.718;7.690;2023-11-18T03:57:55;3.47;93.76
68609;SHT31;55581;46.718;7.690;2023-11-18T04:00:22;3.56;93.59
68609;SHT31;55581;46.718;7.690;2023-11-18T04:02:48;3.64;93.52
68609;SHT31;55581;46.718;7.690;2023-11-18T04:05:13;3.71;93.29
68609;SHT31;55581;46.718;7.690;2023-11-18T04:07:39;3.79;93.42
68609;SHT31;55581;46.718;7.690;2023-11-18T04:10:08;3.84;93.24
68609;SHT31;55581;46.718;7.690;2023-11-18T04:12:36;3.89;93.57
68609;SHT31;55581;46.718;7.690;2023-11-18T04:15:04;3.91;94.05
68609;SHT31;55581;46.718;7.690;2023-11-18T04:17:32;4.03;93.19
68609;SHT31;55581;46.718;7.690;2023-11-18T04:20:00;4.19;92.67
68609;SHT31;55581;46.718;7.690;2023-11-18T04:22:25;4.33;91.85
68609;SHT31;55581;46.718;7.690;2023-11-18T04:24:51;4.44;91.40
68609;SHT31;55581;46.718;7.690;2023-11-18T04:27:16;4.52;91.77
68609;SHT31;55581;46.718;7.690;2023-11-18T04:29:42;4.56;91.35
68609;SHT31;55581;46.718;7.690;2023-11-18T04:32:09;4.61;90.50
68609;SHT31;55581;46.718;7.690;2023-11-18T04:34:36;4.60;89.99
68609;SHT31;55581;46.718;7.690;2023-11-18T04:37:03;4.60;90.11
68609;SHT31;55581;46.718;7.690;2023-11-18T04:39:31;4.61;90.27
68609;SHT31;55581;46.718;7.690;2023-11-18T04:41:57;4.63;90.53
68609;SHT31;55581;46.718;7.690;2023-11-18T04:44:22;4.53;90.96
68609;SHT31;55581;46.718;7.690;2023-11-18T04:46:47;4.49;92.00
68609;SHT31;55581;46.718;7.690;2023-11-18T04:49:13;4.46;92.25
68609;SHT31;55581;46.718;7.690;2023-11-18T04:51:41;4.43;91.80
68609;SHT31;55581;46.718;7.690;2023-11-18T04:54:09;4.44;91.69
68609;SHT31;55581;46.718;7.690;2023-11-18T04:56:36;4.46;91.42
68609;SHT31;55581;46.718;7.690;2023-11-18T04:59:03;4.44;91.15
68609;SHT31;55581;46.718;7.690;2023-11-18T05:01:30;4.46;91.31
68609;SHT31;55581;46.718;7.690;2023-11-18T05:03:55;4.50;90.72
68609;SHT31;55581;46.718;7.690;2023-11-18T05:06:21;4.54;90.42
68609;SHT31;55581;46.718;7.690;2023-11-18T05:08:46;4.53;90.45
68609;SHT31;55581;46.718;7.690;2023-11-18T05:11:11;4.54;91.02
68609;SHT31;55581;46.718;7.690;2023-11-18T05:13:38;4.53;91.03
68609;SHT31;55581;46.718;7.690;2023-11-18T05:16:05;4.53;89.97
68609;SHT31;55581;46.718;7.690;2023-11-18T05:18:31;4.57;89.28
68609;SHT31;55581;46.718;7.690;2023-11-18T05:21:00;4.52;88.03
68609;SHT31;55581;46.718;7.690;2023-11-18T05:23:26;4.58;86.45
68609;SHT31;55581;46.718;7.690;2023-11-18T05:25:54;4.53;88.52
68609;SHT31;55581;46.718;7.690;2023-11-18T05:28:21;4.49;89.78
68609;SHT31;55581;46.718;7.690;2023-11-18T05:30:47;4.46;89.98
68609;SHT31;55581;46.718;7.690;2023-11-18T05:33:12;4.39;90.20
68609;SHT31;55581;46.718;7.690;2023-11-18T05:35:43;4.37;89.79
68609;SHT31;55581;46.718;7.690;2023-11-18T05:38:17;4.29;89.10
68609;SHT31;55581;46.718;7.690;2023-11-18T05:40:55;4.33;89.62
68609;SHT31;55581;46.718;7.690;2023-11-18T05:43:28;4.33;89.44
68609;SHT31;55581;46.718;7.690;2023-11-18T05:45:56;4.29;89.02
68609;SHT31;55581;46.718;7.690;2023-11-18T05:48:44;4.26;88.31
68609;SHT31;55581;46.718;7.690;2023-11-18T05:51:11;4.29;88.69
68609;SHT31;55581;46.718;7.690;2023-11-18T05:53:43;4.33;87.09
68609;SHT31;55581;46.718;7.690;2023-11-18T05:56:15;4.40;87.35
68609;SHT31;55581;46.718;7.690;2023-11-18T05:58:44;4.46;86.79
68609;SHT31;55581;46.718;7.690;2023-11-18T06:01:10;4.53;86.84
68609;SHT31;55581;46.718;7.690;2023-11-18T06:03:36;4.53;87.20
68609;SHT31;55581;46.718;7.690;2023-11-18T06:06:06;4.47;87.81
68609;SHT31;55581;46.718;7.690;2023-11-18T06:08:33;4.53;86.58
68609;SHT31;55581;46.718;7.690;2023-11-18T06:10:58;4.44;87.84
68609;SHT31;55581;46.718;7.690;2023-11-18T06:13:24;4.42;87.60
68609;SHT31;55581;46.718;7.690;2023-11-18T06:15:49;4.37;87.86
68609;SHT31;55581;46.718;7.690;2023-11-18T06:18:18;4.28;88.18
68609;SHT31;55581;46.718;7.690;2023-11-18T06:20:44;4.20;89.02
68609;SHT31;55581;46.718;7.690;2023-11-18T06:23:09;4.19;88.63
68609;SHT31;55581;46.718;7.690;2023-11-18T06:25:35;4.19;88.40
68609;SHT31;55581;46.718;7.690;2023-11-18T06:28:01;4.15;88.43
68609;SHT31;55581;46.718;7.690;2023-11-18T06:30:27;4.10;88.31
68609;SHT31;55581;46.718;7.690;2023-11-18T06:32:53;4.09;88.13
68609;SHT31;55581;46.718;7.690;2023-11-18T06:35:18;4.06;88.43
68609;SHT31;55581;46.718;7.690;2023-11-18T06:37:45;3.95;88.94
68609;SHT31;55581;46.718;7.690;2023-11-18T06:40:10;3.98;89.30
68609;SHT31;55581;46.718;7.690;2023-11-18T06:42:44;4.02;89.26
68609;SHT31;55581;46.718;7.690;2023-11-18T06:45:12;3.88;90.12
68609;SHT31;55581;46.718;7.690;2023-11-18T06:47:38;3.87;90.50
68609;SHT31;55581;46.718;7.690;2023-11-18T06:50:04;3.89;90.59
68609;SHT31;55581;46.718;7.690;2023-11-18T06:52:30;3.98;89.86
68609;SHT31;55581;46.718;7.690;2023-11-18T06:54:56;3.98;89.86
68609;SHT31;55581;46.718;7.690;2023-11-18T06:57:21;3.97;90.25
68609;SHT31;55581;46.718;7.690;2023-11-18T06:59:47;3.99;90.04
68609;SHT31;55581;46.718;7.690;2023-11-18T07:02:17;3.94;90.22
68609;SHT31;55581;46.718;7.690;2023-11-18T07:04:44;3.98;90.11
68609;SHT31;55581;46.718;7.690;2023-11-18T07:07:10;3.95;90.19
68609;SHT31;55581;46.718;7.690;2023-11-18T07:09:37;4.06;89.80
68609;SHT31;55581;46.718;7.690;2023-11-18T07:12:03;4.09;89.30
68609;SHT31;55581;46.718;7.690;2023-11-18T07:14:29;4.10;89.50
68609;SHT31;55581;46.718;7.690;2023-11-18T07:16:54;4.08;89.87
68609;SHT31;55581;46.718;7.690;2023-11-18T07:19:20;4.06;89.38
68609;SHT31;55581;46.718;7.690;2023-11-18T07:21:46;4.16;89.70
68609;SHT31;55581;46.718;7.690;2023-11-18T07:24:12;4.16;89.49
68609;SHT31;55581;46.718;7.690;2023-11-18T07:26:37;4.15;90.52
68609;SHT31;55581;46.718;7.690;2023-11-18T07:29:03;4.20;90.55
68609;SHT31;55581;46.718;7.690;2023-11-18T07:31:28;4.34;89.43
68609;SHT31;55581;46.718;7.690;2023-11-18T07:33:54;4.57;87.66
68609;SHT31;55581;46.718;7.690;2023-11-18T07:36:22;4.72;86.84
68609;SHT31;55581;46.718;7.690;2023-11-18T07:38:48;4.82;87.14
68609;SHT31;55581;46.718;7.690;2023-11-18T07:41:17;4.87;88.19
68609;SHT31;55581;46.718;7.690;2023-11-18T07:43:51;4.89;88.55
68609;SHT31;55581;46.718;7.690;2023-11-18T07:46:20;4.93;88.37
68609;SHT31;55581;46.718;7.690;2023-11-18T07:48:48;4.98;87.39
68609;SHT31;55581;46.718;7.690;2023-11-18T07:51:14;5.04;87.54
68609;SHT31;55581;46.718;7.690;2023-11-18T07:53:40;5.09;87.61
68609;SHT31;55581;46.718;7.690;2023-11-18T07:56:06;5.19;86.83
68609;SHT31;55581;46.718;7.690;2023-11-18T07:58:33;5.32;85.63
68609;SHT31;55581;46.718;7.690;2023-11-18T08:01:03;5.35;84.81
68609;SHT31;55581;46.718;7.690;2023-11-18T08:03:33;5.47;84.05
68609;SHT31;55581;46.718;7.690;2023-11-18T08:05:58;5.54;82.93
68609;SHT31;55581;46.718;7.690;2023-11-18T08:08:24;5.65;83.63
68609;SHT31;55581;46.718;7.690;2023-11-18T08:10:49;5.73;82.86
68609;SHT31;55581;46.718;7.690;2023-11-18T08:13:15;5.70;83.04
68609;SHT31;55581;46.718;7.690;2023-11-18T08:15:42;5.75;82.47
68609;SHT31;55581;46.718;7.690;2023-11-18T08:18:10;5.74;83.11
68609;SHT31;55581;46.718;7.690;2023-11-18T08:20:36;5.73;82.76
68609;SHT31;55581;46.718;7.690;2023-11-18T08:23:03;5.71;83.16
68609;SHT31;55581;46.718;7.690;2023-11-18T08:25:30;5.73;83.27
68609;SHT31;55581;46.718;7.690;2023-11-18T08:28:00;5.84;83.77
68609;SHT31;55581;46.718;7.690;2023-11-18T08:30:28;5.90;84.31
68609;SHT31;55581;46.718;7.690;2023-11-18T08:32:55;5.94;83.99
68609;SHT31;55581;46.718;7.690;2023-11-18T08:35:20;6.01;82.44
68609;SHT31;55581;46.718;7.690;2023-11-18T08:37:47;6.09;82.31
68609;SHT31;55581;46.718;7.690;2023-11-18T08:40:16;6.12;82.12
68609;SHT31;55581;46.718;7.690;2023-11-18T08:42:43;6.15;81.23
68609;SHT31;55581;46.718;7.690;2023-11-18T08:45:19;6.23;80.95
68609;SHT31;55581;46.718;7.690;2023-11-18T08:47:47;6.25;81.51
68609;SHT31;55581;46.718;7.690;2023-11-18T08:50:14;6.26;84.70
68609;SHT31;55581;46.718;7.690;2023-11-18T08:52:42;6.28;84.92
68609;SHT31;55581;46.718;7.690;2023-11-18T08:55:11;6.41;82.74
68609;SHT31;55581;46.718;7.690;2023-11-18T08:57:49;6.47;81.88
68609;SHT31;55581;46.718;7.690;2023-11-18T09:00:26;6.57;81.85
68609;SHT31;55581;46.718;7.690;2023-11-18T09:03:21;6.54;83.74
68609;SHT31;55581;46.718;7.690;2023-11-18T09:05:55;6.61;82.77
68609;SHT31;55581;46.718;7.690;2023-11-18T09:08:25;6.66;81.15
68609;SHT31;55581;46.718;7.690;2023-11-18T09:10:50;6.67;78.54
68609;SHT31;55581;46.718;7.690;2023-11-18T09:13:26;6.63;79.46
68609;SHT31;55581;46.718;7.690;2023-11-18T09:15:56;6.75;78.77
68609;SHT31;55581;46.718;7.690;2023-11-18T09:18:22;6.71;79.04
68609;SHT31;55581;46.718;7.690;2023-11-18T09:20:48;6.74;79.83
68609;SHT31;55581;46.718;7.690;2023-11-18T09:23:14;6.73;80.64
68609;SHT31;55581;46.718;7.690;2023-11-18T09:25:46;6.81;80.29
68609;SHT31;55581;46.718;7.690;2023-11-18T09:28:15;6.95;79.43
68609;SHT31;55581;46.718;7.690;2023-11-18T09:30:45;6.98;79.18
68609;SHT31;55581;46.718;7.690;2023-11-18T09:33:24;7.02;77.15
68609;SHT31;55581;46.718;7.690;2023-11-18T09:36:04;7.01;79.52
68609;SHT31;55581;46.718;7.690;2023-11-18T09:38:37;7.04;77.87
68609;SHT31;55581;46.718;7.690;2023-11-18T09:41:05;7.16;77.70
68609;SHT31;55581;46.718;7.690;2023-11-18T09:43:40;7.22;76.51
68609;SHT31;55581;46.718;7.690;2023-11-18T09:46:27;7.29;75.46
68609;SHT31;55581;46.718;7.690;2023-11-18T09:49:22;7.40;74.93
68609;SHT31;55581;46.718;7.690;2023-11-18T09:51:59;7.34;73.76
68609;SHT31;55581;46.718;7.690;2023-11-18T09:57:38;7.32;73.89
68609;SHT31;55581;46.718;7.690;2023-11-18T10:02:54;7.34;72.68
68609;SHT31;55581;46.718;7.690;2023-11-18T10:05:22;7.39;73.31
68609;SHT31;55581;46.718;7.690;2023-11-18T10:07:49;7.42;73.30
68609;SHT31;55581;46.718;7.690;2023-11-18T10:10:16;7.34;75.56
68609;SHT31;55581;46.718;7.690;2023-11-18T10:12:42;7.34;77.16
68609;SHT31;55581;46.718;7.690;2023-11-18T10:15:15;7.32;76.92
68609;SHT31;55581;46.718;7.690;2023-11-18T10:17:49;7.37;75.95
68609;SHT31;55581;46.718;7.690;2023-11-18T10:23:16;7.46;76.92
68609;SHT31;55581;46.718;7.690;2023-11-18T10:25:49;7.56;75.41
68609;SHT31;55581;46.718;7.690;2023-11-18T10:28:35;7.67;75.19
68609;SHT31;55581;46.718;7.690;2023-11-18T10:31:05;7.77;73.38
68609;SHT31;55581;46.718;7.690;2023-11-18T10:33:38;7.68;72.90
68609;SHT31;55581;46.718;7.690;2023-11-18T10:36:20;7.66;72.66
68609;SHT31;55581;46.718;7.690;2023-11-18T10:38:49;7.75;72.86
68609;SHT31;55581;46.718;7.690;2023-11-18T10:41:15;7.95;75.60
68609;SHT31;55581;46.718;7.690;2023-11-18T10:43:44;8.06;73.34
68609;SHT31;55581;46.718;7.690;2023-11-18T10:46:14;8.16;71.91
68609;SHT31;55581;46.718;7.690;2023-11-18T10:48:50;8.12;71.50
68609;SHT31;55581;46.718;7.690;2023-11-18T10:51:20;8.05;70.15
68609;SHT31;55581;46.718;7.690;2023-11-18T10:53:51;8.02;72.87
68609;SHT31;55581;46.718;7.690;2023-11-18T10:56:26;7.92;72.17
68609;SHT31;55581;46.718;7.690;2023-11-18T10:59:12;7.81;70.08
68609;SHT31;55581;46.718;7.690;2023-11-18T11:01:46;7.81;71.41
68609;SHT31;55581;46.718;7.690;2023-11-18T11:04:15;7.73;71.69
68609;SHT31;55581;46.718;7.690;2023-11-18T11:06:50;7.70;68.46
68609;SHT31;55581;46.718;7.690;2023-11-18T11:09:20;7.59;69.12
68609;SHT31;55581;46.718;7.690;2023-11-18T11:12:00;7.61;70.47
68609;SHT31;55581;46.718;7.690;2023-11-18T11:14:42;7.63;70.42
68609;SHT31;55581;46.718;7.690;2023-11-18T11:17:13;7.59;69.76
68609;SHT31;55581;46.718;7.690;2023-11-18T11:20:04;7.57;70.18
68609;SHT31;55581;46.718;7.690;2023-11-18T11:23:05;7.53;70.98
68609;SHT31;55581;46.718;7.690;2023-11-18T11:28:21;7.56;72.23
68609;SHT31;55581;46.718;7.690;2023-11-18T11:30:55;7.53;71.55
68609;SHT31;55581;46.718;7.690;2023-11-18T11:33:39;7.56;74.21
68609;SHT31;55581;46.718;7.690;2023-11-18T11:36:12;7.60;73.67
68609;SHT31;55581;46.718;7.690;2023-11-18T11:38:41;7.46;71.99
68609;SHT31;55581;46.718;7.690;2023-11-18T11:41:13;7.43;71.51
68609;SHT31;55581;46.718;7.690;2023-11-18T11:43:48;7.49;73.52
68609;SHT31;55581;46.718;7.690;2023-11-18T11:46:15;7.46;72.72
68609;SHT31;55581;46.718;7.690;2023-11-18T11:48:51;7.47;73.82
68609;SHT31;55581;46.718;7.690;2023-11-18T11:54:12;7.47;73.70
68609;SHT31;55581;46.718;7.690;2023-11-18T11:56:45;7.43;73.43
68609;SHT31;55581;46.718;7.690;2023-11-18T12:02:11;7.54;74.51
68609;SHT31;55581;46.718;7.690;2023-11-18T12:04:44;7.46;72.04
68609;SHT31;55581;46.718;7.690;2023-11-18T12:07:10;7.44;73.65
68609;SHT31;55581;46.718;7.690;2023-11-18T12:09:36;7.47;72.87
68609;SHT31;55581;46.718;7.690;2023-11-18T12:12:05;7.49;75.03
68609;SHT31;55581;46.718;7.690;2023-11-18T12:14:50;7.49;75.24
68609;SHT31;55581;46.718;7.690;2023-11-18T12:17:22;7.47;73.62
68609;SHT31;55581;46.718;7.690;2023-11-18T12:19:48;7.51;75.39
68609;SHT31;55581;46.718;7.690;2023-11-18T12:22:24;7.60;72.43
68609;SHT31;55581;46.718;7.690;2023-11-18T12:27:56;7.59;73.27
68609;SHT31;55581;46.718;7.690;2023-11-18T12:33:00;7.50;74.03
68609;SHT31;55581;46.718;7.690;2023-11-18T12:35:30;7.49;74.54
68609;SHT31;55581;46.718;7.690;2023-11-18T12:38:38;7.47;76.11
68609;SHT31;55581;46.718;7.690;2023-11-18T12:41:34;7.53;74.55
68609;SHT31;55581;46.718;7.690;2023-11-18T12:49:15;7.54;75.46
68609;SHT31;55581;46.718;7.690;2023-11-18T12:51:42;7.56;75.76
68609;SHT31;55581;46.718;7.690;2023-11-18T12:54:14;7.57;76.40
68609;SHT31;55581;46.718;7.690;2023-11-18T12:56:41;7.57;76.74
68609;SHT31;55581;46.718;7.690;2023-11-18T12:59:10;7.44;77.71
68609;SHT31;55581;46.718;7.690;2023-11-18T13:01:38;7.43;79.36
68609;SHT31;55581;46.718;7.690;2023-11-18T13:04:07;7.40;80.46
68609;SHT31;55581;46.718;7.690;2023-11-18T13:06:34;7.34;79.67
68609;SHT31;55581;46.718;7.690;2023-11-18T13:09:00;7.37;79.12
68609;SHT31;55581;46.718;7.690;2023-11-18T13:11:31;7.40;77.88
68609;SHT31;55581;46.718;7.690;2023-11-18T13:13:57;7.39;76.83
68609;SHT31;55581;46.718;7.690;2023-11-18T13:16:24;7.36;76.83
68609;SHT31;55581;46.718;7.690;2023-11-18T13:18:51;7.30;77.25
68609;SHT31;55581;46.718;7.690;2023-11-18T13:21:20;7.22;78.33
68609;SHT31;55581;46.718;7.690;2023-11-18T13:23:52;7.24;77.13
68609;SHT31;55581;46.718;7.690;2023-11-18T13:26:19;7.24;77.91
68609;SHT31;55581;46.718;7.690;2023-11-18T13:28:48;7.23;78.49
68609;SHT31;55581;46.718;7.690;2023-11-18T13:31:14;7.30;78.58
68609;SHT31;55581;46.718;7.690;2023-11-18T13:33:47;7.24;79.36
68609;SHT31;55581;46.718;7.690;2023-11-18T13:36:16;7.20;82.34
68609;SHT31;55581;46.718;7.690;2023-11-18T13:38:41;7.12;82.89
68609;SHT31;55581;46.718;7.690;2023-11-18T13:41:07;7.08;82.78
68609;SHT31;55581;46.718;7.690;2023-11-18T13:43:44;7.06;82.81
68609;SHT31;55581;46.718;7.690;2023-11-18T13:46:13;7.05;82.43
68609;SHT31;55581;46.718;7.690;2023-11-18T13:48:40;7.06;82.72
68609;SHT31;55581;46.718;7.690;2023-11-18T13:51:09;7.04;82.81
68609;SHT31;55581;46.718;7.690;2023-11-18T13:53:40;7.04;82.25
68609;SHT31;55581;46.718;7.690;2023-11-18T13:56:10;7.06;82.70
68609;SHT31;55581;46.718;7.690;2023-11-18T13:58:36;7.09;82.46
68609;SHT31;55581;46.718;7.690;2023-11-18T14:01:10;7.09;82.90
68609;SHT31;55581;46.718;7.690;2023-11-18T14:03:38;7.11;82.81
68609;SHT31;55581;46.718;7.690;2023-11-18T14:06:07;7.12;80.94
68609;SHT31;55581;46.718;7.690;2023-11-18T14:08:38;7.13;81.64
68609;SHT31;55581;46.718;7.690;2023-11-18T14:11:05;7.09;82.99
68609;SHT31;55581;46.718;7.690;2023-11-18T14:13:34;7.06;83.54
68609;SHT31;55581;46.718;7.690;2023-11-18T14:16:03;6.99;83.32
68609;SHT31;55581;46.718;7.690;2023-11-18T14:18:29;6.94;83.86
68609;SHT31;55581;46.718;7.690;2023-11-18T14:20:55;6.92;82.95
68609;SHT31;55581;46.718;7.690;2023-11-18T14:23:20;6.87;83.08
68609;SHT31;55581;46.718;7.690;2023-11-18T14:25:47;6.87;85.03
68609;SHT31;55581;46.718;7.690;2023-11-18T14:28:15;6.87;85.63
68609;SHT31;55581;46.718;7.690;2023-11-18T14:30:43;6.88;83.39
68609;SHT31;55581;46.718;7.690;2023-11-18T14:33:09;6.80;87.95
68609;SHT31;55581;46.718;7.690;2023-11-18T14:35:34;6.81;84.90
68609;SHT31;55581;46.718;7.690;2023-11-18T14:38:03;6.83;86.85
68609;SHT31;55581;46.718;7.690;2023-11-18T14:40:28;6.83;85.32
68609;SHT31;55581;46.718;7.690;2023-11-18T14:42:54;6.89;85.74
68609;SHT31;55581;46.718;7.690;2023-11-18T14:45:21;6.96;85.42
68609;SHT31;55581;46.718;7.690;2023-11-18T14:47:47;6.92;86.46
68609;SHT31;55581;46.718;7.690;2023-11-18T14:50:14;6.94;86.87
68609;SHT31;55581;46.718;7.690;2023-11-18T14:52:49;6.94;86.88
68609;SHT31;55581;46.718;7.690;2023-11-18T14:55:17;6.83;86.92
68609;SHT31;55581;46.718;7.690;2023-11-18T14:57:43;6.75;88.37
68609;SHT31;55581;46.718;7.690;2023-11-18T15:00:10;6.75;88.13
68609;SHT31;55581;46.718;7.690;2023-11-18T15:02:48;6.74;87.70
68609;SHT31;55581;46.718;7.690;2023-11-18T15:05:14;6.75;86.38
68609;SHT31;55581;46.718;7.690;2023-11-18T15:07:46;6.71;86.82
68609;SHT31;55581;46.718;7.690;2023-11-18T15:10:19;6.80;88.50
68609;SHT31;55581;46.718;7.690;2023-11-18T15:12:49;6.74;86.79
68609;SHT31;55581;46.718;7.690;2023-11-18T15:15:19;6.70;89.07
68609;SHT31;55581;46.718;7.690;2023-11-18T15:17:46;6.73;88.51
68609;SHT31;55581;46.718;7.690;2023-11-18T15:20:16;6.67;87.95
68609;SHT31;55581;46.718;7.690;2023-11-18T15:22:45;6.64;89.37
68609;SHT31;55581;46.718;7.690;2023-11-18T15:25:11;6.66;89.50
68609;SHT31;55581;46.718;7.690;2023-11-18T15:27:39;6.66;88.60
68609;SHT31;55581;46.718;7.690;2023-11-18T15:30:07;6.61;88.88
68609;SHT31;55581;46.718;7.690;2023-11-18T15:32:36;6.60;89.26
68609;SHT31;55581;46.718;7.690;2023-11-18T15:35:02;6.60;90.49
68609;SHT31;55581;46.718;7.690;2023-11-18T15:37:27;6.56;91.03
68609;SHT31;55581;46.718;7.690;2023-11-18T15:39:54;6.53;90.92
68609;SHT31;55581;46.718;7.690;2023-11-18T15:42:20;6.58;88.40
68609;SHT31;55581;46.718;7.690;2023-11-18T15:44:46;6.50;89.74
68609;SHT31;55581;46.718;7.690;2023-11-18T15:47:11;6.53;87.64
68609;SHT31;55581;46.718;7.690;2023-11-18T15:49:39;6.54;87.10
68609;SHT31;55581;46.718;7.690;2023-11-18T15:52:06;6.51;87.18
68609;SHT31;55581;46.718;7.690;2023-11-18T15:54:35;6.51;88.13
68609;SHT31;55581;46.718;7.690;2023-11-18T15:57:02;6.46;88.52
68609;SHT31;55581;46.718;7.690;2023-11-18T15:59:29;6.49;88.52
68609;SHT31;55581;46.718;7.690;2023-11-18T16:01:57;6.56;87.49
68609;SHT31;55581;46.718;7.690;2023-11-18T16:04:23;6.51;86.83
68609;SHT31;55581;46.718;7.690;2023-11-18T16:06:48;6.46;89.48
68609;SHT31;55581;46.718;7.690;2023-11-18T16:09:14;6.54;87.51
68609;SHT31;55581;46.718;7.690;2023-11-18T16:11:39;6.53;88.14
68609;SHT31;55581;46.718;7.690;2023-11-18T16:14:04;6.54;86.49
68609;SHT31;55581;46.718;7.690;2023-11-18T16:16:31;6.54;87.21
68609;SHT31;55581;46.718;7.690;2023-11-18T16:18:56;6.58;86.49
68609;SHT31;55581;46.718;7.690;2023-11-18T16:21:25;6.57;87.32
68609;SHT31;55581;46.718;7.690;2023-11-18T16:23:50;6.56;88.24